createdAt,value
2023-02-25T00:01:41.753Z,5.07
2023-02-25T00:04:12.269Z,5.07
2023-02-25T00:06:40.111Z,5.09
2023-02-25T00:09:11.189Z,5.09
2023-02-25T00:11:39.469Z,5.11
2023-02-25T00:14:09.292Z,5.11
2023-02-25T00:16:37.270Z,5.12
2023-02-25T00:19:05.188Z,5.12
2023-02-25T00:21:33.128Z,5.13
2023-02-25T00:24:15.322Z,5.13
2023-02-25T00:26:45.199Z,5.11
2023-02-25T00:29:14.727Z,5.09
2023-02-25T00:31:42.837Z,5.05
2023-02-25T00:34:10.840Z,5.06
2023-02-25T00:36:39.777Z,5.07
2023-02-25T00:39:09.241Z,5.07
2023-02-25T00:41:37.526Z,5.07
2023-02-25T00:44:06.035Z,5.07
2023-02-25T00:46:34.633Z,5.09
2023-02-25T00:49:02.872Z,5.09
2023-02-25T00:51:33.073Z,5.08
2023-02-25T00:54:01.026Z,5.08
2023-02-25T00:56:28.963Z,5.06
2023-02-25T00:58:56.856Z,5.05
2023-02-25T01:01:27.998Z,5.00
2023-02-25T01:03:57.177Z,4.96
2023-02-25T01:06:29.781Z,4.91
2023-02-25T01:08:59.466Z,4.88
2023-02-25T01:11:31.241Z,4.84
2023-02-25T01:14:02.308Z,4.82
2023-02-25T01:16:32.142Z,4.81
2023-02-25T01:19:05.003Z,4.78
2023-02-25T01:21:39.007Z,4.77
2023-02-25T01:24:11.591Z,4.76
2023-02-25T01:26:42.230Z,4.76
2023-02-25T01:29:13.159Z,4.77
2023-02-25T01:31:42.104Z,4.76
2023-02-25T01:34:13.904Z,4.76
2023-02-25T01:36:43.194Z,4.76
2023-02-25T01:39:12.568Z,4.76
2023-02-25T01:41:40.636Z,4.74
2023-02-25T01:44:19.227Z,4.75
2023-02-25T01:46:49.776Z,4.77
2023-02-25T01:49:36.501Z,4.81
2023-02-25T01:52:06.317Z,4.85
2023-02-25T01:54:36.896Z,4.88
2023-02-25T01:57:10.596Z,4.91
2023-02-25T01:59:39.485Z,4.93
2023-02-25T02:02:17.329Z,4.95
2023-02-25T02:04:51.206Z,4.99
2023-02-25T02:07:22.675Z,5.02
2023-02-25T02:09:56.519Z,5.03
2023-02-25T02:12:27.590Z,5.06
2023-02-25T02:14:59.115Z,5.03
2023-02-25T02:17:31.730Z,4.99
2023-02-25T02:20:13.143Z,4.94
2023-02-25T02:23:08.301Z,4.95
2023-02-25T02:26:09.764Z,4.98
2023-02-25T02:28:49.565Z,5.00
2023-02-25T02:31:51.408Z,5.03
2023-02-25T02:34:46.840Z,5.06
2023-02-25T02:37:31.203Z,5.07
2023-02-25T02:39:59.001Z,5.08
2023-02-25T02:42:53.673Z,5.09
2023-02-25T02:45:29.190Z,5.05
2023-02-25T02:48:02.341Z,4.98
2023-02-25T02:50:50.849Z,4.95
2023-02-25T02:53:25.418Z,4.93
2023-02-25T02:55:56.780Z,4.92
2023-02-25T02:58:41.421Z,4.89
2023-02-25T03:01:17.503Z,4.83
2023-02-25T03:03:51.892Z,4.77
2023-02-25T03:06:27.142Z,4.69
2023-02-25T03:08:59.769Z,4.63
2023-02-25T03:11:27.762Z,4.58
2023-02-25T03:13:55.653Z,4.53
2023-02-25T03:16:33.995Z,4.48
2023-02-25T03:19:13.840Z,4.43
2023-02-25T03:21:46.469Z,4.41
2023-02-25T03:24:23.866Z,4.39
2023-02-25T03:26:53.537Z,4.37
2023-02-25T03:29:25.779Z,4.33
2023-02-25T03:31:58.524Z,4.30
2023-02-25T03:34:49.110Z,4.26
2023-02-25T03:37:28.637Z,4.20
2023-02-25T03:40:01.158Z,4.17
2023-02-25T03:42:33.773Z,4.14
2023-02-25T03:45:06.051Z,4.12
2023-02-25T03:47:37.202Z,4.10
2023-02-25T03:50:08.235Z,4.09
2023-02-25T03:52:37.225Z,4.10
2023-02-25T03:55:11.784Z,4.10
2023-02-25T03:57:42.060Z,4.10
2023-02-25T04:00:22.863Z,4.08
2023-02-25T04:02:51.723Z,4.06
2023-02-25T04:05:22.142Z,4.06
2023-02-25T04:07:49.994Z,4.06
2023-02-25T04:10:18.547Z,4.06
2023-02-25T04:12:47.357Z,4.07
2023-02-25T04:15:15.270Z,4.08
2023-02-25T04:17:45.124Z,4.09
2023-02-25T04:20:14.729Z,4.10
2023-02-25T04:22:43.156Z,4.13
2023-02-25T04:25:11.338Z,4.15
2023-02-25T04:27:40.109Z,4.16
2023-02-25T04:30:09.244Z,4.16
2023-02-25T04:32:37.149Z,4.16
2023-02-25T04:35:07.387Z,4.15
2023-02-25T04:37:35.305Z,4.14
2023-02-25T04:40:05.148Z,4.15
2023-02-25T04:42:32.962Z,4.17
2023-02-25T04:45:00.860Z,4.18
2023-02-25T04:47:28.754Z,4.20
2023-02-25T04:49:56.553Z,4.23
2023-02-25T04:52:24.386Z,4.27
2023-02-25T04:54:52.261Z,4.31
2023-02-25T04:57:20.369Z,4.35
2023-02-25T04:59:48.393Z,4.38
2023-02-25T05:02:16.361Z,4.40
2023-02-25T05:04:44.427Z,4.43
2023-02-25T05:07:12.306Z,4.45
2023-02-25T05:09:40.136Z,4.46
2023-02-25T05:12:08.090Z,4.47
2023-02-25T05:14:37.322Z,4.49
2023-02-25T05:17:05.155Z,4.50
2023-02-25T05:19:33.255Z,4.50
2023-02-25T05:22:01.148Z,4.51
2023-02-25T05:24:28.998Z,4.51
2023-02-25T05:26:56.834Z,4.53
2023-02-25T05:29:24.698Z,4.55
2023-02-25T05:31:52.710Z,4.56
2023-02-25T05:34:22.799Z,4.58
2023-02-25T05:36:50.612Z,4.60
2023-02-25T05:39:18.448Z,4.61
2023-02-25T05:41:46.311Z,4.62
2023-02-25T05:44:14.342Z,4.63
2023-02-25T05:46:42.206Z,4.64
2023-02-25T05:49:11.131Z,4.64
2023-02-25T05:51:38.943Z,4.64
2023-02-25T05:54:06.829Z,4.63
2023-02-25T05:56:34.702Z,4.62
2023-02-25T05:59:02.550Z,4.63
2023-02-25T06:01:31.711Z,4.65
2023-02-25T06:03:59.679Z,4.64
2023-02-25T06:06:29.908Z,4.64
2023-02-25T06:08:58.532Z,4.63
2023-02-25T06:11:29.394Z,4.62
2023-02-25T06:13:58.887Z,4.60
2023-02-25T06:16:31.974Z,4.60
2023-02-25T06:19:01.716Z,4.58
2023-02-25T06:21:30.306Z,4.52
2023-02-25T06:23:58.492Z,4.49
2023-02-25T06:26:26.798Z,4.47
2023-02-25T06:28:55.300Z,4.46
2023-02-25T06:31:24.995Z,4.45
2023-02-25T06:33:54.935Z,4.45
2023-02-25T06:36:23.202Z,4.45
2023-02-25T06:38:51.356Z,4.45
2023-02-25T06:41:22.959Z,4.42
2023-02-25T06:43:52.521Z,4.44
2023-02-25T06:46:23.330Z,4.49
2023-02-25T06:48:51.816Z,4.56
2023-02-25T06:51:19.712Z,4.62
2023-02-25T06:53:47.706Z,4.64
2023-02-25T06:56:16.694Z,4.64
2023-02-25T06:58:44.609Z,4.67
2023-02-25T07:01:16.178Z,4.70
2023-02-25T07:03:44.624Z,4.71
2023-02-25T07:06:15.838Z,4.75
2023-02-25T07:08:45.003Z,4.80
2023-02-25T07:11:18.827Z,4.83
2023-02-25T07:13:48.202Z,4.87
2023-02-25T07:16:17.116Z,4.89
2023-02-25T07:18:46.435Z,4.89
2023-02-25T07:21:14.663Z,4.87
2023-02-25T07:23:43.184Z,4.85
2023-02-25T07:26:13.004Z,4.84
2023-02-25T07:28:42.144Z,4.88
2023-02-25T07:31:14.464Z,4.92
2023-02-25T07:33:43.467Z,4.96
2023-02-25T07:36:11.999Z,5.03
2023-02-25T07:38:40.685Z,5.11
2023-02-25T07:41:11.619Z,5.18
2023-02-25T07:43:40.312Z,5.23
2023-02-25T07:46:09.524Z,5.29
2023-02-25T07:48:37.493Z,5.34
2023-02-25T07:51:15.692Z,5.30
2023-02-25T07:53:43.655Z,5.25
2023-02-25T07:56:12.265Z,5.25
2023-02-25T07:58:40.362Z,5.22
2023-02-25T08:01:09.878Z,5.20
2023-02-25T08:03:38.534Z,5.19
2023-02-25T08:06:08.262Z,5.16
2023-02-25T08:08:37.332Z,5.14
2023-02-25T08:11:06.873Z,5.13
2023-02-25T08:13:34.983Z,5.16
2023-02-25T08:16:12.162Z,5.17
2023-02-25T08:18:43.950Z,5.19
2023-02-25T08:21:18.069Z,5.19
2023-02-25T08:23:46.016Z,5.22
2023-02-25T08:26:17.594Z,5.28
2023-02-25T08:28:46.201Z,5.32
2023-02-25T08:31:15.266Z,5.32
2023-02-25T08:33:49.285Z,5.28
2023-02-25T08:36:20.671Z,5.29
2023-02-25T08:38:50.206Z,5.36
2023-02-25T08:41:19.879Z,5.40
2023-02-25T08:43:54.454Z,5.55
2023-02-25T08:46:24.463Z,5.74
2023-02-25T08:48:54.269Z,5.93
2023-02-25T08:51:25.027Z,5.98
2023-02-25T08:53:53.115Z,5.95
2023-02-25T08:56:20.957Z,5.89
2023-02-25T08:58:48.784Z,5.86
2023-02-25T09:01:17.849Z,5.82
2023-02-25T09:03:53.554Z,5.81
2023-02-25T09:06:24.292Z,5.75
2023-02-25T09:08:52.529Z,5.80
2023-02-25T09:11:21.263Z,5.80
2023-02-25T09:13:49.408Z,5.86
2023-02-25T09:16:17.893Z,5.93
2023-02-25T09:18:47.556Z,6.07
2023-02-25T09:21:15.808Z,6.20
2023-02-25T09:23:43.882Z,6.30
2023-02-25T09:26:12.479Z,6.38
2023-02-25T09:28:40.492Z,6.40
2023-02-25T09:31:08.965Z,6.23
2023-02-25T09:33:37.994Z,6.11
2023-02-25T09:36:17.818Z,6.08
2023-02-25T09:38:47.305Z,6.08
2023-02-25T09:41:46.763Z,6.07
2023-02-25T09:44:20.389Z,5.95
2023-02-25T09:46:51.845Z,5.78
2023-02-25T09:49:36.255Z,5.68
2023-02-25T09:52:18.704Z,5.75
2023-02-25T09:54:48.747Z,5.74
2023-02-25T09:57:20.158Z,5.71
2023-02-25T09:59:50.033Z,5.76
2023-02-25T10:02:36.996Z,5.86
2023-02-25T10:05:21.948Z,5.84
2023-02-25T10:08:26.540Z,5.71
2023-02-25T10:11:02.159Z,5.68
2023-02-25T10:13:49.956Z,5.66
2023-02-25T10:16:41.715Z,5.64
2023-02-25T10:19:15.468Z,5.72
2023-02-25T10:21:54.733Z,5.84
2023-02-25T10:24:36.005Z,5.77
2023-02-25T10:27:13.962Z,5.67
2023-02-25T10:29:49.737Z,5.69
2023-02-25T10:32:31.534Z,5.76
2023-02-25T10:35:33.871Z,5.74
2023-02-25T10:38:01.977Z,5.81
2023-02-25T10:40:29.922Z,5.90
2023-02-25T10:43:10.434Z,5.99
2023-02-25T10:45:40.326Z,6.14
2023-02-25T10:48:18.791Z,6.31
2023-02-25T10:51:12.840Z,6.43
2023-02-25T10:53:53.318Z,6.43
2023-02-25T10:56:21.935Z,6.45
2023-02-25T10:59:04.837Z,6.44
2023-02-25T11:01:39.763Z,6.46
2023-02-25T11:04:14.186Z,6.52
2023-02-25T11:06:43.638Z,6.58
2023-02-25T11:09:20.442Z,6.68
2023-02-25T11:12:09.756Z,6.61
2023-02-25T11:14:39.860Z,6.43
2023-02-25T11:17:22.778Z,6.24
2023-02-25T11:20:00.318Z,6.21
2023-02-25T11:22:39.969Z,6.12
2023-02-25T11:25:17.400Z,6.01
2023-02-25T11:27:54.075Z,5.93
2023-02-25T11:30:31.324Z,6.00
2023-02-25T11:33:00.800Z,5.90
2023-02-25T11:35:39.059Z,5.81
2023-02-25T11:38:26.252Z,5.89
2023-02-25T11:40:54.938Z,5.88
2023-02-25T11:43:25.204Z,5.79
2023-02-25T11:46:00.364Z,5.85
2023-02-25T11:48:57.424Z,5.91
2023-02-25T11:51:29.527Z,5.97
2023-02-25T11:54:12.874Z,6.05
2023-02-25T11:56:48.502Z,6.00
2023-02-25T11:59:37.795Z,6.04
2023-02-25T12:02:20.770Z,6.08
2023-02-25T12:05:14.185Z,6.07
2023-02-25T12:08:19.306Z,6.10
2023-02-25T12:11:14.568Z,6.01
2023-02-25T12:14:00.628Z,5.93
2023-02-25T12:16:59.654Z,5.85
2023-02-25T12:19:41.052Z,5.83
2023-02-25T12:22:40.371Z,5.85
2023-02-25T12:25:30.794Z,5.80
2023-02-25T12:28:24.615Z,5.68
2023-02-25T12:31:26.825Z,5.54
2023-02-25T12:34:13.691Z,5.40
2023-02-25T12:36:56.283Z,5.15
2023-02-25T12:39:38.225Z,4.80
2023-02-25T12:42:38.004Z,4.61
2023-02-25T12:45:21.344Z,4.54
2023-02-25T12:48:04.441Z,4.46
2023-02-25T12:51:17.198Z,4.36
2023-02-25T12:54:22.240Z,4.40
2023-02-25T12:56:54.602Z,4.54
2023-02-25T12:59:56.562Z,4.58
2023-02-25T13:02:42.376Z,4.56
2023-02-25T13:05:15.999Z,4.57
2023-02-25T13:08:12.393Z,4.57
2023-02-25T13:11:17.711Z,4.55
2023-02-25T13:14:16.901Z,4.64
2023-02-25T13:17:15.496Z,4.63
2023-02-25T13:20:04.317Z,4.61
2023-02-25T13:23:03.273Z,4.54
2023-02-25T13:25:53.215Z,4.41
2023-02-25T13:28:45.375Z,4.30
2023-02-25T13:31:39.062Z,4.19
2023-02-25T13:34:41.374Z,4.08
2023-02-25T13:37:37.887Z,3.98
2023-02-25T13:40:26.870Z,3.96
2023-02-25T13:42:58.713Z,4.00
2023-02-25T13:45:29.702Z,4.06
2023-02-25T13:48:06.696Z,4.17
2023-02-25T13:50:54.985Z,4.26
2023-02-25T13:53:59.849Z,4.31
2023-02-25T13:56:43.764Z,4.33
2023-02-25T13:59:41.031Z,4.31
2023-02-25T14:02:24.170Z,4.19
2023-02-25T14:05:10.358Z,4.04
2023-02-25T14:08:05.830Z,3.91
2023-02-25T14:10:47.288Z,3.83
2023-02-25T14:13:16.130Z,3.78
2023-02-25T14:16:17.344Z,3.68
2023-02-25T14:18:48.179Z,3.61
2023-02-25T14:21:33.998Z,3.63
2023-02-25T14:24:19.905Z,3.64
2023-02-25T14:27:11.513Z,3.62
2023-02-25T14:30:16.597Z,3.50
2023-02-25T14:33:00.652Z,3.37
2023-02-25T14:35:55.732Z,3.31
2023-02-25T14:39:00.547Z,3.28
2023-02-25T14:41:59.105Z,3.30
2023-02-25T14:44:39.394Z,3.31
2023-02-25T14:47:17.111Z,3.32
2023-02-25T14:50:09.419Z,3.29
2023-02-25T14:52:55.790Z,3.28
2023-02-25T14:55:39.085Z,3.22
2023-02-25T14:58:37.724Z,3.13
2023-02-25T15:01:14.240Z,3.06
2023-02-25T15:04:00.425Z,3.03
2023-02-25T15:06:46.648Z,3.01
2023-02-25T15:09:59.135Z,2.98
2023-02-25T15:12:36.057Z,2.96
2023-02-25T15:15:28.896Z,2.97
2023-02-25T15:18:38.074Z,2.94
2023-02-25T15:21:41.395Z,2.94
2023-02-25T15:24:32.527Z,2.96
2023-02-25T15:27:00.847Z,2.99
2023-02-25T15:29:28.605Z,2.97
2023-02-25T15:32:21.268Z,2.98
2023-02-25T15:34:54.083Z,2.98
2023-02-25T15:37:27.885Z,2.97
2023-02-25T15:39:57.298Z,2.91
2023-02-25T15:42:49.856Z,2.87
2023-02-25T15:45:27.454Z,2.85
2023-02-25T15:48:07.646Z,2.81
2023-02-25T15:50:41.746Z,2.77
2023-02-25T15:53:11.334Z,2.75
2023-02-25T15:55:41.390Z,2.73
2023-02-25T15:58:42.888Z,2.72
2023-02-25T16:01:36.661Z,2.73
2023-02-25T16:04:34.231Z,2.72
2023-02-25T16:07:07.578Z,2.68
2023-02-25T16:09:41.987Z,2.63
2023-02-25T16:12:15.224Z,2.58
2023-02-25T16:14:44.722Z,2.52
2023-02-25T16:17:18.360Z,2.47
2023-02-25T16:19:52.518Z,2.40
2023-02-25T16:22:26.456Z,2.31
2023-02-25T16:24:56.916Z,2.27
2023-02-25T16:27:41.919Z,2.23
2023-02-25T16:30:18.809Z,2.18
2023-02-25T16:33:09.404Z,2.18
2023-02-25T16:35:44.955Z,2.19
2023-02-25T16:38:50.678Z,2.20
2023-02-25T16:41:19.996Z,2.18
2023-02-25T16:43:49.906Z,2.12
2023-02-25T16:46:22.404Z,2.10
2023-02-25T16:48:58.497Z,2.09
2023-02-25T16:51:34.536Z,2.04
2023-02-25T16:54:10.240Z,1.97
2023-02-25T16:56:39.807Z,1.92
2023-02-25T16:59:10.572Z,1.88
2023-02-25T17:01:40.006Z,1.83
2023-02-25T17:04:35.428Z,1.79
2023-02-25T17:07:27.977Z,1.77
2023-02-25T17:10:02.440Z,1.75
2023-02-25T17:12:36.590Z,1.76
2023-02-25T17:15:16.186Z,1.77
2023-02-25T17:17:45.572Z,1.79
2023-02-25T17:20:19.052Z,1.80
2023-02-25T17:22:47.023Z,1.79
2023-02-25T17:25:16.256Z,1.78
2023-02-25T17:27:47.955Z,1.77
2023-02-25T17:30:34.410Z,1.76
2023-02-25T17:33:02.338Z,1.76
2023-02-25T17:35:31.170Z,1.76
2023-02-25T17:37:59.438Z,1.74
2023-02-25T17:40:29.525Z,1.72
2023-02-25T17:43:21.285Z,1.73
2023-02-25T17:45:53.520Z,1.76
2023-02-25T17:48:27.436Z,1.76
2023-02-25T17:50:57.649Z,1.83
2023-02-25T17:53:33.465Z,2.35
2023-02-25T17:56:31.543Z,2.82
2023-02-25T17:59:28.148Z,2.79
2023-02-25T18:01:58.909Z,2.71
2023-02-25T18:04:40.142Z,2.71
2023-02-25T18:07:29.553Z,2.61
2023-02-25T18:09:57.378Z,2.41
2023-02-25T18:12:37.601Z,2.25
2023-02-25T18:15:18.545Z,2.08
2023-02-25T18:18:10.254Z,1.98
2023-02-25T18:20:42.094Z,1.94
2023-02-25T18:23:21.167Z,1.89
2023-02-25T18:26:09.195Z,1.85
2023-02-25T18:28:38.452Z,1.81
2023-02-25T18:31:06.790Z,1.78
2023-02-25T18:33:34.909Z,1.76
2023-02-25T18:36:06.740Z,1.75
2023-02-25T18:38:38.152Z,1.76
2023-02-25T18:41:06.400Z,1.76
2023-02-25T18:43:38.968Z,1.74
2023-02-25T18:46:06.930Z,1.71
2023-02-25T18:48:35.479Z,1.69
2023-02-25T18:51:05.835Z,1.65
2023-02-25T18:53:34.302Z,1.64
2023-02-25T18:56:02.106Z,1.64
2023-02-25T18:58:30.099Z,1.63
2023-02-25T19:00:59.452Z,1.64
2023-02-25T19:03:33.876Z,1.65
2023-02-25T19:06:03.516Z,1.66
2023-02-25T19:08:31.873Z,1.66
2023-02-25T19:10:59.688Z,1.64
2023-02-25T19:13:36.844Z,1.64
2023-02-25T19:16:05.347Z,1.62
2023-02-25T19:18:34.005Z,1.61
2023-02-25T19:21:01.860Z,1.64
2023-02-25T19:23:29.745Z,1.66
2023-02-25T19:26:00.139Z,1.63
2023-02-25T19:28:28.711Z,1.59
2023-02-25T19:30:56.556Z,1.57
2023-02-25T19:33:24.509Z,1.56
2023-02-25T19:35:52.646Z,1.54
2023-02-25T19:38:20.654Z,1.54
2023-02-25T19:40:48.781Z,1.53
2023-02-25T19:43:18.040Z,1.52
2023-02-25T19:45:45.965Z,1.52
2023-02-25T19:48:13.819Z,1.54
2023-02-25T19:50:41.709Z,1.52
2023-02-25T19:53:09.814Z,1.50
2023-02-25T19:55:39.045Z,1.48
2023-02-25T19:58:06.930Z,1.48
2023-02-25T20:00:34.807Z,1.44
2023-02-25T20:03:02.728Z,1.43
2023-02-25T20:05:30.617Z,1.44
2023-02-25T20:07:58.500Z,1.47
2023-02-25T20:10:26.292Z,1.49
2023-02-25T20:12:54.194Z,1.48
2023-02-25T20:15:22.019Z,1.47
2023-02-25T20:17:54.853Z,1.48
2023-02-25T20:20:23.828Z,1.46
2023-02-25T20:22:52.322Z,1.44
2023-02-25T20:25:20.526Z,1.41
2023-02-25T20:27:48.473Z,1.37
2023-02-25T20:30:17.700Z,1.35
2023-02-25T20:32:46.187Z,1.33
2023-02-25T20:35:20.579Z,1.32
2023-02-25T20:38:04.538Z,1.31
2023-02-25T20:40:33.766Z,1.30
2023-02-25T20:43:01.704Z,1.28
2023-02-25T20:45:29.917Z,1.28
2023-02-25T20:47:59.214Z,1.27
2023-02-25T20:50:29.302Z,1.25
2023-02-25T20:52:57.483Z,1.23
2023-02-25T20:55:25.386Z,1.22
2023-02-25T20:57:53.593Z,1.22
2023-02-25T21:00:21.779Z,1.23
2023-02-25T21:02:57.175Z,1.15
2023-02-25T21:05:25.175Z,1.12
2023-02-25T21:07:53.025Z,1.09
2023-02-25T21:10:20.944Z,1.06
2023-02-25T21:12:49.318Z,1.04
2023-02-25T21:15:17.400Z,1.01
2023-02-25T21:17:45.246Z,0.98
2023-02-25T21:20:13.396Z,0.95
2023-02-25T21:22:41.266Z,0.94
2023-02-25T21:25:09.373Z,0.95
2023-02-25T21:27:37.215Z,0.96
2023-02-25T21:30:06.544Z,0.94
2023-02-25T21:32:34.353Z,0.94
2023-02-25T21:35:02.245Z,0.95
2023-02-25T21:37:30.489Z,0.91
2023-02-25T21:39:58.296Z,0.89
2023-02-25T21:42:26.217Z,0.86
2023-02-25T21:44:54.311Z,0.83
2023-02-25T21:47:22.238Z,0.80
2023-02-25T21:49:51.366Z,0.77
2023-02-25T21:52:19.296Z,0.75
2023-02-25T21:54:47.142Z,0.72
2023-02-25T21:57:15.402Z,0.71
2023-02-25T21:59:43.264Z,0.69
2023-02-25T22:02:11.141Z,0.66
2023-02-25T22:04:39.010Z,0.65
2023-02-25T22:07:06.941Z,0.66
2023-02-25T22:09:34.787Z,0.65
2023-02-25T22:12:02.734Z,0.67
2023-02-25T22:14:30.529Z,0.68
2023-02-25T22:16:59.514Z,0.69
2023-02-25T22:19:28.260Z,0.71
2023-02-25T22:21:56.159Z,0.71
2023-02-25T22:24:24.152Z,0.73
2023-02-25T22:26:52.152Z,0.75
2023-02-25T22:29:21.746Z,0.77
2023-02-25T22:31:49.906Z,0.78
2023-02-25T22:34:18.130Z,0.79
2023-02-25T22:36:46.037Z,0.77
2023-02-25T22:39:13.895Z,0.76
2023-02-25T22:41:41.798Z,0.78
2023-02-25T22:44:09.725Z,0.76
2023-02-25T22:46:39.308Z,0.75
2023-02-25T22:49:08.244Z,0.78
2023-02-25T22:51:42.653Z,0.79
2023-02-25T22:54:16.484Z,0.77
2023-02-25T22:56:45.799Z,0.75
2023-02-25T22:59:14.496Z,0.72
2023-02-25T23:01:42.468Z,0.70
2023-02-25T23:04:10.556Z,0.68
2023-02-25T23:06:43.876Z,0.66
2023-02-25T23:09:14.409Z,0.63
2023-02-25T23:11:44.039Z,0.62
2023-02-25T23:14:12.850Z,0.62
2023-02-25T23:16:43.517Z,0.61
2023-02-25T23:19:15.977Z,0.60
2023-02-25T23:21:44.742Z,0.63
2023-02-25T23:24:18.517Z,0.65
2023-02-25T23:26:50.148Z,0.62
2023-02-25T23:29:18.194Z,0.58
2023-02-25T23:31:47.707Z,0.51
2023-02-25T23:34:25.125Z,0.47
2023-02-25T23:36:56.121Z,0.47
2023-02-25T23:39:24.235Z,0.45
2023-02-25T23:41:52.162Z,0.45
2023-02-25T23:44:20.164Z,0.46
2023-02-25T23:46:48.096Z,0.48
2023-02-25T23:49:17.720Z,0.48
2023-02-25T23:51:47.595Z,0.46
2023-02-25T23:54:19.087Z,0.47
2023-02-25T23:56:47.363Z,0.49
2023-02-25T23:59:15.460Z,0.47
